Time;durP1;ratioP1;P1;durP2;ratioP2;P2;SDS_P1;SDS_P2;PMS_P1;PMS_P2;Temp;Humidity;BMP_temperature;BMP_pressure;BME280_temperature;BME280_humidity;BME280_pressure;Samples;Min_cycle;Max_cycle;Signal;HPM_P1;HPM_P2
2023/07/25 00:01:36;;;;;;;6.40;1.80;;;;;;;16.26;100.00;99706.75;5053955;28;20449;-71
2023/07/25 00:04:03;;;;;;;7.43;2.23;;;;;;;16.30;100.00;99691.22;5053807;28;20449;-71
2023/07/25 00:06:31;;;;;;;5.80;1.53;;;;;;;16.32;100.00;99696.31;5053093;28;20994;-72
2023/07/25 00:08:57;;;;;;;6.00;1.70;;;;;;;16.27;100.00;99702.06;5053854;28;20442;-71
2023/07/25 00:11:25;;;;;;;6.67;1.73;;;;;;;16.20;100.00;99705.44;5053488;28;20439;-72
2023/07/25 00:13:51;;;;;;;7.10;1.63;;;;;;;16.16;100.00;99707.34;5053401;28;20496;-72
2023/07/25 00:16:18;;;;;;;6.40;1.47;;;;;;;16.12;100.00;99703.75;5053432;28;20466;-72
2023/07/25 00:18:44;;;;;;;6.00;1.53;;;;;;;16.20;100.00;99705.44;5053714;28;20633;-72
2023/07/25 00:21:11;;;;;;;5.50;1.40;;;;;;;16.17;100.00;99708.91;5053626;28;20489;-71
2023/07/25 00:23:37;;;;;;;6.30;1.70;;;;;;;16.14;100.00;99707.69;5053679;28;20446;-71
2023/07/25 00:26:03;;;;;;;5.40;1.30;;;;;;;16.10;100.00;99712.28;5053334;28;20470;-71
2023/07/25 00:28:31;;;;;;;7.40;1.97;;;;;;;16.03;100.00;99706.69;5053343;28;20438;-71
2023/07/25 00:30:58;;;;;;;6.37;1.57;;;;;;;15.96;100.00;99712.00;5053301;28;20438;-69
2023/07/25 00:33:24;;;;;;;6.03;1.37;;;;;;;15.98;100.00;99709.72;5054055;28;20442;-70
2023/07/25 00:35:52;;;;;;;6.57;1.90;;;;;;;15.97;100.00;99704.59;5053075;28;20472;-71
2023/07/25 00:38:18;;;;;;;9.70;2.10;;;;;;;15.91;100.00;99701.34;5053282;28;20447;-71
2023/07/25 00:40:46;;;;;;;6.47;1.57;;;;;;;15.95;100.00;99701.44;5053174;28;20489;-71
2023/07/25 00:43:13;;;;;;;6.40;1.83;;;;;;;15.91;100.00;99708.75;5053235;28;20973;-71
2023/07/25 00:45:40;;;;;;;6.40;2.00;;;;;;;15.87;100.00;99705.94;5053233;28;20462;-71
2023/07/25 00:48:07;;;;;;;7.50;2.00;;;;;;;15.88;100.00;99707.53;5053445;28;20438;-71
2023/07/25 00:50:33;;;;;;;6.20;1.67;;;;;;;15.80;100.00;99701.13;5053150;28;20442;-71
2023/07/25 00:53:02;;;;;;;6.10;1.63;;;;;;;15.83;100.00;99710.53;5053347;28;20442;-71
2023/07/25 00:55:29;;;;;;;6.90;1.80;;;;;;;15.74;100.00;99708.00;5053015;28;20484;-71
2023/07/25 00:57:56;;;;;;;6.13;1.63;;;;;;;15.78;100.00;99717.06;5053386;28;20442;-71
2023/07/25 01:00:22;;;;;;;6.37;1.67;;;;;;;15.69;100.00;99721.16;5052978;28;21001;-71
2023/07/25 01:02:50;;;;;;;6.00;1.70;;;;;;;15.68;100.00;99723.09;5053018;28;20438;-71
2023/07/25 01:05:17;;;;;;;10.23;1.83;;;;;;;15.72;100.00;99720.47;5052808;28;20465;-71
2023/07/25 01:07:44;;;;;;;6.30;1.80;;;;;;;15.64;100.00;99724.97;5053631;28;20427;-71
2023/07/25 01:10:10;;;;;;;6.07;1.73;;;;;;;15.69;100.00;99727.41;5056628;28;20446;-72
2023/07/25 01:12:37;;;;;;;5.93;1.67;;;;;;;15.69;100.00;99737.53;5057129;28;20533;-72
2023/07/25 01:15:04;;;;;;;9.03;2.57;;;;;;;15.62;100.00;99725.28;5056951;28;21002;-72
2023/07/25 01:17:30;;;;;;;5.90;1.80;;;;;;;15.65;100.00;99732.00;5056730;28;20465;-72
2023/07/25 01:19:58;;;;;;;8.60;1.97;;;;;;;15.62;100.00;99733.47;5056821;28;20485;-72
2023/07/25 01:22:27;;;;;;;5.83;1.70;;;;;;;15.63;100.00;99735.06;5056935;28;20479;-72
2023/07/25 01:24:56;;;;;;;6.87;2.00;;;;;;;15.64;100.00;99742.13;5056149;28;20883;-72
2023/07/25 01:27:23;;;;;;;6.00;1.80;;;;;;;15.66;100.00;99730.84;5056466;28;20525;-72
2023/07/25 01:29:49;;;;;;;6.57;2.07;;;;;;;15.64;100.00;99742.13;5056440;28;20453;-72
2023/07/25 01:32:16;;;;;;;6.80;2.20;;;;;;;15.66;100.00;99749.94;5056368;28;20478;-71
2023/07/25 01:34:43;;;;;;;6.40;1.80;;;;;;;15.68;100.00;99749.63;5056328;28;20462;-72
2023/07/25 01:37:10;;;;;;;7.07;2.27;;;;;;;15.73;100.00;99750.13;5055982;28;20926;-72
2023/07/25 01:39:36;;;;;;;5.40;1.40;;;;;;;15.65;100.00;99753.84;5056596;28;20470;-72
2023/07/25 01:42:05;;;;;;;6.70;2.13;;;;;;;15.72;100.00;99758.69;5056097;28;20488;-72
2023/07/25 01:44:31;;;;;;;8.13;2.90;;;;;;;15.68;100.00;99755.06;5056119;28;20445;-71
2023/07/25 01:46:58;;;;;;;7.97;2.40;;;;;;;15.73;100.00;99766.50;5056309;28;20442;-71
2023/07/25 01:49:25;;;;;;;7.40;2.17;;;;;;;15.77;100.00;99767.38;5055764;28;20956;-72
2023/07/25 01:51:51;;;;;;;7.37;2.30;;;;;;;15.79;100.00;99767.81;5056169;28;20458;-72
2023/07/25 01:54:18;;;;;;;8.60;2.70;;;;;;;15.80;100.00;99766.66;5056569;28;20478;-72
2023/07/25 01:56:44;;;;;;;6.77;1.80;;;;;;;15.86;100.00;99759.00;5055562;28;20466;-72
2023/07/25 01:59:13;;;;;;;7.47;2.43;;;;;;;15.87;100.00;99760.56;5055854;28;20477;-72
2023/07/25 02:01:39;;;;;;;7.00;1.93;;;;;;;15.89;100.00;99753.63;5056193;28;20573;-73
2023/07/25 02:04:06;;;;;;;7.17;2.37;;;;;;;15.93;100.00;99758.34;5055803;28;20851;-70
2023/07/25 02:06:32;;;;;;;7.97;2.40;;;;;;;15.94;100.00;99762.66;5069767;22;20868;-71
2023/07/25 02:08:59;;;;;;;6.90;2.13;;;;;;;15.94;100.00;99765.38;5057556;28;20534;-75
2023/07/25 02:11:26;;;;;;;8.10;2.23;;;;;;;15.96;100.00;99757.63;5058953;28;20476;-75
2023/07/25 02:13:52;;;;;;;7.73;2.80;;;;;;;15.95;100.00;99756.84;5058903;28;20489;-75
2023/07/25 02:16:20;;;;;;;7.20;2.17;;;;;;;15.96;100.00;99761.16;5058487;28;20466;-75
2023/07/25 02:18:47;;;;;;;7.63;2.80;;;;;;;15.89;100.00;99755.53;5042158;28;20949;-75
2023/07/25 02:21:14;;;;;;;7.43;2.70;;;;;;;15.88;100.00;99754.75;5061314;28;20490;-75
2023/07/25 02:23:40;;;;;;;7.60;2.50;;;;;;;15.91;100.00;99758.72;5062306;28;20537;-75
2023/07/25 02:26:07;;;;;;;7.20;2.43;;;;;;;15.99;100.00;99773.31;5062406;28;21050;-75
2023/07/25 02:28:34;;;;;;;6.70;2.53;;;;;;;15.99;100.00;99774.13;5064647;28;20446;-75
2023/07/25 02:31:00;;;;;;;7.37;2.37;;;;;;;15.96;100.00;99774.81;5065662;28;20458;-75
2023/07/25 02:33:28;;;;;;;8.07;2.37;;;;;;;16.02;100.00;99783.50;5065957;28;20502;-74
2023/07/25 02:35:55;;;;;;;7.57;2.60;;;;;;;15.93;100.00;99794.63;5063783;28;20496;-75
2023/07/25 02:38:21;;;;;;;7.73;2.90;;;;;;;15.93;100.00;99791.91;5064603;28;20469;-74
2023/07/25 02:40:48;;;;;;;6.80;2.40;;;;;;;15.82;100.00;99785.44;5063611;28;20481;-74
2023/07/25 02:43:15;;;;;;;7.73;2.70;;;;;;;15.73;100.00;99782.88;5064776;28;20499;-74
2023/07/25 02:45:41;;;;;;;9.97;3.47;;;;;;;15.83;100.00;99796.00;5064550;28;20482;-74
2023/07/25 02:48:08;;;;;;;7.27;2.43;;;;;;;15.80;100.00;99795.91;5064283;28;20479;-74
2023/07/25 02:50:36;;;;;;;8.90;3.07;;;;;;;15.71;100.00;99793.38;5066464;28;20474;-74
2023/07/25 02:53:03;;;;;;;8.43;2.93;;;;;;;15.69;100.00;99806.59;5064168;28;20461;-75
2023/07/25 02:55:30;;;;;;;8.23;3.20;;;;;;;15.74;100.00;99800.84;5063345;28;20462;-75
2023/07/25 02:57:57;;;;;;;7.53;2.70;;;;;;;15.77;100.00;99799.38;5063500;28;20508;-75
2023/07/25 03:00:24;;;;;;;8.47;3.30;;;;;;;15.70;100.00;99797.25;5063172;28;20485;-75
2023/07/25 03:02:50;;;;;;;7.93;2.70;;;;;;;15.74;100.00;99794.59;5064518;28;20953;-74
2023/07/25 03:05:18;;;;;;;7.47;2.87;;;;;;;15.70;100.00;99793.72;5064006;28;20466;-73
2023/07/25 03:07:46;;;;;;;10.77;2.83;;;;;;;15.76;100.00;99804.03;5062274;28;20774;-74
2023/07/25 03:10:12;;;;;;;8.73;3.87;;;;;;;15.80;100.00;99804.09;5062727;28;20442;-74
2023/07/25 03:12:39;;;;;;;9.10;3.60;;;;;;;15.86;100.00;99810.88;5062780;28;20462;-74
2023/07/25 03:15:07;;;;;;;9.93;3.30;;;;;;;15.82;100.00;99819.00;5064003;28;20974;-75
2023/07/25 03:17:33;;;;;;;9.20;3.43;;;;;;;15.84;100.00;99822.16;5065719;28;21015;-74
2023/07/25 03:20:00;;;;;;;7.70;3.20;;;;;;;15.85;100.00;99818.28;5066369;28;20446;-73
2023/07/25 03:22:27;;;;;;;9.40;3.13;;;;;;;15.87;100.00;99813.25;5065265;28;20490;-73
2023/07/25 03:24:55;;;;;;;8.80;2.60;;;;;;;15.83;100.00;99822.50;5047096;28;21005;-73
2023/07/25 03:27:22;;;;;;;8.00;3.10;;;;;;;15.84;100.00;99822.16;5066576;28;20438;-73
2023/07/25 03:29:48;;;;;;;7.97;2.40;;;;;;;15.83;100.00;99820.56;5063557;28;20449;-74
2023/07/25 03:32:15;;;;;;;8.30;3.03;;;;;;;15.71;100.00;99817.16;5064742;28;20465;-75
2023/07/25 03:34:42;;;;;;;9.40;3.10;;;;;;;15.72;100.00;99833.19;5065286;28;20492;-74
2023/07/25 03:37:09;;;;;;;8.20;3.50;;;;;;;15.67;100.00;99829.91;5047009;28;20422;-75
2023/07/25 03:39:35;;;;;;;8.43;2.87;;;;;;;15.62;100.00;99820.03;5065138;28;20446;-75
2023/07/25 03:42:04;;;;;;;12.00;3.00;;;;;;;15.55;100.00;99817.16;5065413;28;20569;-75
2023/07/25 03:44:31;;;;;;;9.80;2.73;;;;;;;15.63;100.00;99811.50;5063822;28;20442;-75
2023/07/25 03:46:57;;;;;;;7.80;2.67;;;;;;;15.69;100.00;99817.50;5064810;28;20469;-75
2023/07/25 03:49:24;;;;;;;9.77;3.30;;;;;;;15.73;100.00;99820.34;5063581;28;20462;-75
2023/07/25 03:51:51;;;;;;;8.93;2.80;;;;;;;15.72;100.00;99816.81;5062457;28;20496;-74
2023/07/25 03:54:20;;;;;;;9.97;3.00;;;;;;;15.67;100.00;99806.16;5044384;28;20430;-74
2023/07/25 03:56:47;;;;;;;7.40;2.33;;;;;;;15.59;100.00;99818.81;5063314;28;20980;-75
2023/07/25 03:59:15;;;;;;;9.77;3.63;;;;;;;15.50;100.00;99809.22;5062233;28;20426;-74
2023/07/25 04:01:42;;;;;;;7.20;2.47;;;;;;;15.58;100.00;99824.59;5057138;28;20482;-72
2023/07/25 04:04:08;;;;;;;8.70;3.33;;;;;;;15.61;100.00;99823.91;5054039;28;20446;-70
2023/07/25 04:06:35;;;;;;;7.53;2.30;;;;;;;15.57;100.00;99834.75;5054937;28;20478;-73
2023/07/25 04:09:02;;;;;;;6.37;2.10;;;;;;;15.56;100.00;99832.38;5054025;28;20529;-73
2023/07/25 04:11:28;;;;;;;10.03;3.20;;;;;;;15.57;100.00;99829.28;5054073;28;20533;-73
2023/07/25 04:13:55;;;;;;;9.97;2.50;;;;;;;15.62;100.00;99836.41;5055762;28;20446;-73
2023/07/25 04:16:23;;;;;;;6.30;2.03;;;;;;;15.58;100.00;99835.53;5056656;28;20545;-73
2023/07/25 04:18:50;;;;;;;8.90;3.13;;;;;;;15.57;100.00;99839.41;5056465;28;20453;-73
2023/07/25 04:21:16;;;;;;;8.57;2.83;;;;;;;15.58;100.00;99841.81;5055620;28;20480;-73
2023/07/25 04:23:44;;;;;;;7.20;2.07;;;;;;;15.65;100.00;99838.47;5055881;28;20442;-73
2023/07/25 04:26:10;;;;;;;8.20;2.90;;;;;;;15.68;100.00;99829.59;5055220;28;20855;-73
2023/07/25 04:28:37;;;;;;;8.20;3.07;;;;;;;15.69;100.00;99833.91;5055920;28;20854;-73
2023/07/25 04:31:04;;;;;;;7.63;2.60;;;;;;;15.66;100.00;99848.25;5056263;28;20865;-73
2023/07/25 04:33:31;;;;;;;6.60;2.57;;;;;;;15.71;100.00;99842.50;5055464;28;20526;-73
2023/07/25 04:35:58;;;;;;;8.50;2.90;;;;;;;15.72;100.00;99838.66;5056750;28;20529;-73
2023/07/25 04:38:25;;;;;;;9.40;2.80;;;;;;;15.72;100.00;99835.13;5055555;28;20477;-73
2023/07/25 04:40:51;;;;;;;8.50;2.80;;;;;;;15.75;100.00;99837.94;5055959;28;20446;-73
2023/07/25 04:43:20;;;;;;;7.87;2.07;;;;;;;15.78;100.00;99839.97;5059723;28;20537;-73
2023/07/25 04:45:46;;;;;;;8.60;2.60;;;;;;;15.72;100.00;99841.38;5065749;28;20604;-73
2023/07/25 04:48:13;;;;;;;8.80;2.93;;;;;;;15.80;100.00;99836.88;5064940;28;20910;-73
2023/07/25 04:50:41;;;;;;;7.63;2.53;;;;;;;15.84;100.00;99849.47;5062262;28;20450;-73
2023/07/25 04:53:08;;;;;;;10.53;2.73;;;;;;;15.92;100.00;99846.91;5061505;28;20470;-73
2023/07/25 04:55:34;;;;;;;6.70;2.47;;;;;;;15.95;100.00;99843.47;5060806;28;20502;-73
2023/07/25 04:58:02;;;;;;;14.03;2.90;;;;;;;15.97;100.00;99836.50;5060632;28;20496;-73
2023/07/25 05:00:29;;;;;;;7.37;2.53;;;;;;;15.97;100.00;99836.50;5060381;28;20511;-73
2023/07/25 05:02:55;;;;;;;7.07;2.83;;;;;;;15.98;100.00;99832.63;5060379;28;20573;-73
2023/07/25 05:05:22;;;;;;;7.10;2.30;;;;;;;16.08;100.00;99834.00;5063746;28;21001;-72
2023/07/25 05:07:50;;;;;;;6.87;2.50;;;;;;;16.10;100.00;99840.69;5067178;28;20448;-72
2023/07/25 05:10:17;;;;;;;11.53;2.10;;;;;;;16.15;100.00;99836.88;5067346;28;20465;-72
2023/07/25 05:12:43;;;;;;;7.47;2.60;;;;;;;16.11;100.00;99841.47;5062535;28;20537;-70
2023/07/25 05:15:10;;;;;;;6.70;2.07;;;;;;;16.00;100.00;99835.00;5058582;28;20495;-71
2023/07/25 05:17:37;;;;;;;8.53;2.73;;;;;;;16.09;100.00;99832.84;5059801;28;20812;-72
2023/07/25 05:20:04;;;;;;;9.50;2.97;;;;;;;16.12;100.00;99824.75;5056987;28;20578;-72
2023/07/25 05:22:31;;;;;;;7.03;2.33;;;;;;;16.14;100.00;99827.09;5056591;28;20513;-70
2023/07/25 05:24:59;;;;;;;7.80;2.83;;;;;;;16.15;100.00;99826.75;5057193;28;20548;-70
2023/07/25 05:27:25;;;;;;;7.73;2.40;;;;;;;16.18;100.00;99819.78;5059799;28;20473;-72
2023/07/25 05:29:52;;;;;;;7.77;2.73;;;;;;;16.24;100.00;99812.09;5059834;28;20441;-73
2023/07/25 05:32:18;;;;;;;7.87;2.60;;;;;;;16.24;100.00;99807.41;5057201;28;20964;-73
2023/07/25 05:34:45;;;;;;;7.07;2.40;;;;;;;16.38;100.00;99809.69;5057145;28;20501;-73
2023/07/25 05:37:12;;;;;;;7.43;2.40;;;;;;;16.43;100.00;99814.84;5057148;28;20445;-73
2023/07/25 05:39:38;;;;;;;5.93;2.20;;;;;;;16.52;100.00;99820.91;5057191;28;20972;-73
2023/07/25 05:42:07;;;;;;;14.63;2.73;;;;;;;16.57;100.00;99823.34;5057692;28;20840;-74
2023/07/25 05:44:34;;;;;;;7.30;2.93;;;;;;;16.42;100.00;99826.13;5057511;28;20851;-75
2023/07/25 05:47:03;;;;;;;6.50;2.50;;;;;;;16.39;100.00;99831.19;5057120;28;20809;-74
2023/07/25 05:49:29;;;;;;;6.53;2.50;;;;;;;16.48;100.00;99832.91;5056765;28;21033;-74
2023/07/25 05:51:56;;;;;;;7.70;3.00;;;;;;;16.52;100.00;99844.72;5057282;28;20533;-74
2023/07/25 05:54:23;;;;;;;7.40;2.43;;;;;;;16.56;100.00;99856.53;5056735;28;20868;-71
2023/07/25 05:56:49;;;;;;;6.70;2.77;;;;;;;16.50;100.00;99863.41;5064657;28;20470;-73
2023/07/25 05:59:17;;;;;;;6.60;1.77;;;;;;;16.53;100.00;99879.88;5058723;28;20469;-73
2023/07/25 06:01:44;;;;;;;7.57;2.17;;;;;;;16.54;100.00;99897.09;5056270;28;20565;-73
2023/07/25 06:04:13;;;;;;;8.67;2.83;;;;;;;16.59;100.00;99905.00;5056064;28;20925;-69
2023/07/25 06:06:40;;;;;;;6.20;1.80;;;;;;;16.65;100.00;99923.53;5055358;28;20573;-71
2023/07/25 06:09:06;;;;;;;7.07;2.13;;;;;;;16.71;100.00;99926.75;5055800;28;20446;-71
2023/07/25 06:11:33;;;;;;;6.63;2.17;;;;;;;16.78;100.00;99937.09;5055709;28;20533;-71
2023/07/25 06:14:00;;;;;;;8.17;2.23;;;;;;;16.75;100.00;99944.06;5055709;28;20976;-69
2023/07/25 06:16:28;;;;;;;8.73;2.50;;;;;;;16.84;100.00;99939.19;5055416;28;20977;-69
2023/07/25 06:18:54;;;;;;;6.50;1.90;;;;;;;16.79;100.00;99935.94;5056069;28;20478;-68
2023/07/25 06:21:21;;;;;;;11.77;2.40;;;;;;;16.85;100.00;99939.97;5055435;28;20546;-69
2023/07/25 06:23:47;;;;;;;6.17;1.73;;;;;;;17.00;100.00;99932.84;5055136;28;20474;-69
2023/07/25 06:26:14;;;;;;;6.20;1.77;;;;;;;16.98;100.00;99943.34;5055699;28;20549;-69
2023/07/25 06:28:41;;;;;;;8.10;2.60;;;;;;;17.01;100.00;99946.19;5055411;28;20442;-69
2023/07/25 06:31:08;;;;;;;12.63;1.70;;;;;;;17.03;100.00;99941.13;5055349;28;20448;-69
2023/07/25 06:33:36;;;;;;;6.30;1.23;;;;;;;16.95;100.00;99930.38;5055063;28;20442;-69
2023/07/25 06:36:03;;;;;;;15.30;2.10;;;;;;;17.02;100.00;99928.59;5055226;28;20480;-67
2023/07/25 06:38:29;;;;;;;5.63;1.60;;;;;;;16.98;100.00;99930.47;5055755;28;20492;-69
2023/07/25 06:40:56;;;;;;;10.53;2.13;;;;;;;16.89;100.00;99938.09;5057291;28;20443;-69
2023/07/25 06:43:23;;;;;;;5.60;1.40;;;;;;;16.94;100.00;99926.06;5055083;28;20903;-67
2023/07/25 06:45:52;;;;;;;5.53;1.30;;;;;;;16.95;100.00;99930.38;5054672;28;21048;-67
2023/07/25 06:48:18;;;;;;;6.13;1.80;;;;;;;17.07;100.00;99933.78;5054645;28;20949;-69
2023/07/25 06:50:46;;;;;;;6.57;1.80;;;;;;;17.23;100.00;99928.22;5055325;28;20488;-69
2023/07/25 06:53:13;;;;;;;5.40;1.57;;;;;;;17.38;100.00;99916.38;5054855;28;20522;-69
2023/07/25 06:55:40;;;;;;;5.87;1.37;;;;;;;17.51;100.00;99922.47;5054805;28;20827;-70
2023/07/25 06:58:07;;;;;;;5.37;1.20;;;;;;;17.38;100.00;99915.59;5054857;28;20860;-70
2023/07/25 07:00:37;;;;;;;5.60;1.73;;;;;;;17.43;100.00;99931.72;5054843;28;20446;-70
2023/07/25 07:03:04;;;;;;;5.70;1.50;;;;;;;17.40;99.22;99925.03;5055124;28;20465;-70
2023/07/25 07:05:31;;;;;;;5.10;1.40;;;;;;;17.47;98.13;99918.88;5054411;28;21005;-71
2023/07/25 07:07:59;;;;;;;4.80;1.10;;;;;;;17.48;98.83;99917.72;5054962;28;20496;-71
2023/07/25 07:10:25;;;;;;;5.17;1.30;;;;;;;17.48;98.46;99925.94;5054670;28;20501;-69
2023/07/25 07:12:53;;;;;;;5.10;1.37;;;;;;;17.32;98.88;99926.06;5054756;28;20818;-70
2023/07/25 07:15:23;;;;;;;7.50;1.43;;;;;;;17.36;98.23;99918.69;5054542;28;20470;-69
2023/07/25 07:17:50;;;;;;;6.30;1.53;;;;;;;17.40;97.96;99919.56;5054239;28;20801;-69
2023/07/25 07:20:17;;;;;;;7.50;1.37;;;;;;;17.44;97.96;99918.81;5054535;28;20454;-68
2023/07/25 07:22:43;;;;;;;7.40;1.57;;;;;;;17.39;96.18;99919.91;5054047;28;20486;-69
2023/07/25 07:25:12;;;;;;;5.43;1.27;;;;;;;17.50;96.24;99933.81;5054007;28;20980;-69
2023/07/25 07:27:38;;;;;;;5.00;1.30;;;;;;;17.57;95.44;99923.75;5054299;28;20554;-69
2023/07/25 07:30:06;;;;;;;5.60;1.23;;;;;;;17.62;91.60;99925.44;5054380;28;20930;-68
2023/07/25 07:32:33;;;;;;;4.63;0.87;;;;;;;17.71;92.49;99919.69;5053871;28;20434;-69
2023/07/25 07:34:59;;;;;;;4.97;1.13;;;;;;;17.81;93.35;99919.13;5053764;28;20986;-68
2023/07/25 07:37:26;;;;;;;5.17;1.00;;;;;;;17.89;93.97;99920.81;5054421;28;20549;-67
2023/07/25 07:39:53;;;;;;;5.63;1.63;;;;;;;17.71;94.05;99914.19;5053765;28;20442;-69
2023/07/25 07:42:21;;;;;;;4.83;1.20;;;;;;;17.57;91.93;99904.59;5053660;28;21081;-68
2023/07/25 07:44:47;;;;;;;4.47;0.90;;;;;;;17.75;91.53;99899.47;5053725;28;20508;-69
2023/07/25 07:47:14;;;;;;;5.33;1.00;;;;;;;17.94;91.44;99897.81;5053933;28;20798;-69
2023/07/25 07:49:40;;;;;;;5.53;1.20;;;;;;;17.92;90.97;99902.84;5054163;28;20793;-69
2023/07/25 07:52:07;;;;;;;6.10;1.30;;;;;;;17.97;90.39;99894.31;5053888;28;20441;-69
2023/07/25 07:54:34;;;;;;;6.90;1.10;;;;;;;17.82;88.00;99896.81;5054328;28;20450;-66
2023/07/25 07:57:00;;;;;;;5.00;1.10;;;;;;;17.83;89.18;99894.88;5054428;28;20438;-68
2023/07/25 07:59:28;;;;;;;6.20;1.17;;;;;;;17.77;88.27;99891.66;5053964;28;20442;-68
2023/07/25 08:01:55;;;;;;;5.43;1.20;;;;;;;17.82;88.41;99888.59;5053552;28;20496;-68
2023/07/25 08:04:21;;;;;;;5.67;1.13;;;;;;;17.93;89.83;99887.97;5053867;28;20541;-68
2023/07/25 08:06:48;;;;;;;5.40;1.50;;;;;;;17.96;89.98;99901.75;5060199;22;20829;-71
2023/07/25 08:09:15;;;;;;;4.43;0.90;;;;;;;18.10;90.54;99899.22;5054044;28;20529;-73
2023/07/25 08:11:41;;;;;;;7.00;1.10;;;;;;;18.10;88.38;99901.94;5054150;28;20938;-72
2023/07/25 08:14:08;;;;;;;5.30;1.23;;;;;;;18.35;87.15;99885.88;5053949;28;20525;-71
2023/07/25 08:16:36;;;;;;;4.83;0.90;;;;;;;18.45;86.18;99887.19;5053273;28;20473;-70
2023/07/25 08:19:03;;;;;;;4.70;1.10;;;;;;;18.56;85.24;99879.09;5053935;28;20438;-70
2023/07/25 08:21:29;;;;;;;5.70;1.23;;;;;;;18.45;84.04;99880.91;5054011;28;20529;-70
2023/07/25 08:23:56;;;;;;;5.20;1.23;;;;;;;18.53;84.90;99882.59;5053676;28;20518;-70
2023/07/25 08:26:22;;;;;;;13.23;1.80;;;;;;;18.59;84.50;99876.41;5053682;28;21029;-73
2023/07/25 08:28:49;;;;;;;7.43;1.47;;;;;;;18.60;83.45;99872.50;5053718;28;20452;-70
2023/07/25 08:31:16;;;;;;;7.53;1.13;;;;;;;18.63;84.19;99876.44;5053363;28;20843;-70
2023/07/25 08:33:44;;;;;;;4.40;0.90;;;;;;;18.57;81.27;99888.91;5053248;28;20525;-71
2023/07/25 08:36:11;;;;;;;5.67;1.00;;;;;;;18.66;83.50;99886.69;5053523;28;20470;-71
2023/07/25 08:38:41;;;;;;;4.50;1.00;;;;;;;18.84;80.57;99895.94;5053871;28;20525;-71
2023/07/25 08:41:11;;;;;;;5.53;1.40;;;;;;;18.94;81.83;99899.19;5053752;28;20453;-72
2023/07/25 08:43:40;;;;;;;6.97;1.30;;;;;;;18.89;83.22;99903.84;5053399;28;20470;-71
2023/07/25 08:46:08;;;;;;;4.67;1.00;;;;;;;18.90;81.10;99905.44;5053346;28;20870;-71
2023/07/25 08:48:37;;;;;;;4.87;0.97;;;;;;;19.04;81.02;99907.56;5053411;28;20914;-71
2023/07/25 08:51:08;;;;;;;5.13;1.30;;;;;;;19.23;78.77;99908.53;5053684;28;20442;-71
2023/07/25 08:53:41;;;;;;;5.10;1.37;;;;;;;19.22;77.68;99917.97;5053375;28;20427;-71
2023/07/25 08:56:08;;;;;;;5.40;1.00;;;;;;;19.20;77.39;99904.59;5053547;28;20865;-70
2023/07/25 08:58:36;;;;;;;6.50;1.00;;;;;;;19.27;79.00;99904.66;5053226;28;20450;-70
2023/07/25 09:01:02;;;;;;;6.93;1.10;;;;;;;19.21;77.92;99902.63;5053300;28;20485;-71
2023/07/25 09:03:29;;;;;;;8.40;1.20;;;;;;;19.41;77.67;99901.28;5053567;28;20912;-71
2023/07/25 09:05:58;;;;;;;4.60;1.00;;;;;;;19.53;79.38;99898.25;5053325;28;20470;-71
2023/07/25 09:08:26;;;;;;;5.73;1.60;;;;;;;19.57;76.95;99898.31;5053041;28;20446;-70
2023/07/25 09:10:53;;;;;;;5.03;1.30;;;;;;;19.60;76.26;99905.75;5053415;28;20462;-70
2023/07/25 09:13:20;;;;;;;4.93;1.27;;;;;;;19.60;77.72;99889.28;5053271;28;20477;-70
2023/07/25 09:15:47;;;;;;;4.53;0.77;;;;;;;19.79;79.99;99888.28;5053052;28;20497;-70
2023/07/25 09:18:14;;;;;;;4.60;0.97;;;;;;;19.97;74.34;99889.25;5053073;28;20525;-71
2023/07/25 09:20:40;;;;;;;6.43;1.10;;;;;;;19.94;71.80;99903.75;5053723;28;20517;-71
2023/07/25 09:23:07;;;;;;;6.27;1.37;;;;;;;19.86;71.68;99908.38;5052903;28;20517;-71
2023/07/25 09:25:35;;;;;;;5.33;1.03;;;;;;;19.83;76.28;99902.84;5053255;28;20470;-71
2023/07/25 09:28:02;;;;;;;4.70;0.90;;;;;;;19.92;75.86;99908.81;5053255;28;20442;-71
2023/07/25 09:30:28;;;;;;;4.70;0.80;;;;;;;19.93;75.35;99912.38;5055614;28;20938;-71
2023/07/25 09:32:55;;;;;;;5.40;1.27;;;;;;;19.99;73.33;99908.09;5056244;28;20934;-71
2023/07/25 09:35:23;;;;;;;4.83;0.93;;;;;;;20.10;75.55;99911.72;5057169;28;20536;-71
2023/07/25 09:37:54;;;;;;;5.93;1.47;;;;;;;20.24;73.28;99917.31;5056755;28;20450;-71
2023/07/25 09:40:21;;;;;;;4.40;0.90;;;;;;;20.28;73.71;99914.59;5056752;28;20521;-71
2023/07/25 09:42:51;;;;;;;5.20;1.20;;;;;;;20.15;71.88;99917.66;5056126;28;20572;-71
2023/07/25 09:45:18;;;;;;;4.50;1.00;;;;;;;20.20;69.75;99915.72;5056560;28;20525;-71
2023/07/25 09:47:45;;;;;;;4.50;0.80;;;;;;;20.20;69.80;99927.50;5056230;28;20448;-70
2023/07/25 09:50:11;;;;;;;5.50;1.10;;;;;;;20.09;71.46;99938.41;5055997;28;20446;-70
2023/07/25 09:52:40;;;;;;;4.50;0.80;;;;;;;20.15;68.86;99936.13;5056684;28;20525;-71
2023/07/25 09:55:07;;;;;;;4.90;1.17;;;;;;;20.20;69.82;99924.75;5056390;28;20470;-70
2023/07/25 09:57:34;;;;;;;4.33;0.60;;;;;;;20.27;66.15;99922.03;5056368;28;20446;-71
2023/07/25 10:00:05;;;;;;;4.67;1.10;;;;;;;20.29;66.65;99925.19;5056027;28;20521;-70
2023/07/25 10:02:33;;;;;;;4.57;1.00;;;;;;;20.41;66.24;99932.38;5055988;28;20434;-71
2023/07/25 10:05:00;;;;;;;4.40;0.70;;;;;;;20.53;66.42;99921.03;5056383;28;20557;-70
2023/07/25 10:07:28;;;;;;;4.70;1.00;;;;;;;20.65;66.24;99922.69;5055821;28;20445;-70
2023/07/25 10:09:57;;;;;;;9.37;1.30;;;;;;;20.75;67.61;99929.41;5055906;28;20534;-70
2023/07/25 10:12:24;;;;;;;5.23;1.20;;;;;;;20.80;67.01;99921.56;5055739;28;20481;-70
2023/07/25 10:14:50;;;;;;;5.40;1.23;;;;;;;20.64;66.46;99934.88;5055651;28;20551;-70
2023/07/25 10:17:19;;;;;;;4.50;0.80;;;;;;;20.57;63.90;99930.09;5055990;28;20442;-70
2023/07/25 10:19:50;;;;;;;4.53;0.97;;;;;;;20.60;65.52;99928.56;5055562;28;20481;-70
2023/07/25 10:22:17;;;;;;;4.70;1.03;;;;;;;20.60;65.80;99928.56;5055855;28;20509;-70
2023/07/25 10:24:44;;;;;;;5.53;0.97;;;;;;;20.49;66.05;99922.97;5055261;28;21013;-73
2023/07/25 10:27:13;;;;;;;4.60;0.90;;;;;;;20.34;66.60;99918.56;5055660;28;20485;-70
2023/07/25 10:29:42;;;;;;;4.53;0.80;;;;;;;20.28;67.19;99918.13;5056272;28;20442;-70
2023/07/25 10:32:12;;;;;;;6.23;1.37;;;;;;;20.23;68.14;99928.69;5055532;28;20485;-70
2023/07/25 10:34:49;;;;;;;5.53;1.03;;;;;;;20.14;68.60;99918.81;5055473;28;20469;-70
2023/07/25 10:37:30;;;;;;;5.13;1.00;;;;;;;20.08;69.80;99917.59;5055138;28;20436;-71
2023/07/25 10:40:23;;;;;;;4.60;1.10;;;;;;;20.08;70.79;99919.56;5054967;28;20500;-71
2023/07/25 10:42:51;;;;;;;5.13;1.50;;;;;;;20.09;69.87;99923.88;5052190;28;20482;-71
2023/07/25 10:45:22;;;;;;;4.63;1.30;;;;;;;20.05;68.44;99925.81;5054877;28;20962;-71
2023/07/25 10:47:49;;;;;;;5.10;1.10;;;;;;;19.95;69.87;99926.50;5055122;28;20808;-71
2023/07/25 10:50:26;;;;;;;4.70;1.00;;;;;;;20.06;69.28;99935.66;5055577;28;20859;-71
2023/07/25 10:52:53;;;;;;;4.63;0.90;;;;;;;20.20;68.71;99922.00;5055429;28;20461;-71
2023/07/25 10:55:20;;;;;;;6.77;1.10;;;;;;;20.43;68.44;99924.50;5054854;28;20966;-71
2023/07/25 10:58:07;;;;;;;4.80;1.13;;;;;;;20.69;68.45;99912.50;5055225;28;20466;-71
2023/07/25 11:00:38;;;;;;;5.07;1.03;;;;;;;20.90;66.86;99912.59;5055140;28;20443;-71
2023/07/25 11:03:26;;;;;;;5.47;1.00;;;;;;;21.10;67.34;99915.00;5054679;28;20478;-71
2023/07/25 11:06:32;;;;;;;4.60;0.90;;;;;;;21.03;63.94;99912.22;5054338;28;20866;-71
2023/07/25 11:08:59;;;;;;;7.00;1.50;;;;;;;21.31;65.36;99906.84;5054317;28;20485;-71
2023/07/25 11:11:26;;;;;;;5.43;1.40;;;;;;;21.38;62.11;99912.38;5054887;28;20612;-71
2023/07/25 11:13:53;;;;;;;4.87;0.83;;;;;;;21.56;65.01;99904.13;5054179;28;20478;-71
2023/07/25 11:16:22;;;;;;;5.07;1.33;;;;;;;21.54;60.59;99903.72;5055061;28;20553;-71
2023/07/25 11:18:50;;;;;;;7.13;1.40;;;;;;;21.36;61.49;99902.91;5054257;28;20914;-72
2023/07/25 11:21:18;;;;;;;5.13;1.03;;;;;;;21.38;60.54;99903.28;5054051;28;20859;-71
2023/07/25 11:23:45;;;;;;;4.90;1.03;;;;;;;21.97;61.81;99903.75;5054640;28;20532;-70
2023/07/25 11:26:12;;;;;;;5.63;1.30;;;;;;;22.80;61.67;99902.41;5054208;28;20481;-70
2023/07/25 11:28:39;;;;;;;6.13;1.03;;;;;;;23.30;55.16;99887.56;5054473;28;20446;-71
2023/07/25 11:31:06;;;;;;;5.10;1.00;;;;;;;23.10;55.46;99887.28;5054303;28;20529;-72